Tapaua, Brazil
Current Conditions -  °F | °C
As of 4:00 PM on Monday 20 Oct 2014 (Local Time) from SBMY Reporting Station
Few Clouds Few Clouds  
Wind Chill: 90°   Ceiling: Unl
Heat Index: 100°   Visibility: 6mi
Dew Point: 75°   Wind: 5mph
Humidity: 62%   Direction: 300°WNW
Pressure: 29.74"   Gusts: NA
Location:  5.75°S, 63.39°W
Report Text: SBMY 202000Z 30004KT 9999 FEW022 32/24 Q1007
Loading
Personal Weather Stations






























Interactive Weather Map
Tropical Storm Tracking
New forecast layout! Learn more

10-Day Weather Forecast

Advertisements
Track Severe Weather on mobile